SAWH/USH METAR and TAF weather

Enter ICAO airport designator
Station Type Date Time Source
SAWH METAR 2019/02/20 17:00 UTC NOAA

SAWH 201700Z 20018G28KT 7000 +RA BKN012 OVC050 04/02 Q0987


Station Type Date Time Source
SAWH Decoded METAR 2019/02/20 17:00 UTC NOAA

Ushuaia Aerodrome, Argentina (SAWH) 54-48S 068-19W 14M
Feb 20, 2019 - 12:00 PM EST / 2019.02.20 1700 UTC
Wind: from the SSW (200 degrees) at 21 MPH (18 KT) gusting to 32 MPH (28 KT):0
Visibility: 4 mile(s):0
Sky conditions: overcast
Weather: heavy rain
Temperature: 39 F (4 C)
Dew Point: 35 F (2 C)
Relative Humidity: 86%
Pressure (altimeter): 29.15 in. Hg (0987 hPa)
ob: SAWH 201700Z 20018G28KT 7000 +RA BKN012 OVC050 04/02 Q0987
cycle: 17

Station Type Date Time Source
SAWH TAF 2019/02/20 12:06 UTC NOAA

TAF SAWH 201100Z 2012/2112 20025G40KT 9999 SHRA SCT015 BKN025 OVC050 TX07/2017Z TN00/2110Z PROB40
TEMPO 2013/2018 18035G50KT 2000 +RA BKN015 OVC040
BECMG 2022/2024 20020G30KT NSW BKN020 BKN080
BECMG 2103/2105 23015KT SCT030 SCT090


Example: see airport list